createdAt,value
2023-03-01T00:00:24.269Z,95487.06
2023-03-01T00:03:32.865Z,95479.47
2023-03-01T00:06:46.981Z,95484.44
2023-03-01T00:09:55.145Z,95480.16
2023-03-01T00:13:03.428Z,95477.81
2023-03-01T00:16:15.187Z,95480.28
2023-03-01T00:19:23.901Z,95471.25
2023-03-01T00:22:33.399Z,95474.47
2023-03-01T00:25:44.907Z,95472.56
2023-03-01T00:28:57.327Z,95469.22
2023-03-01T00:32:05.997Z,95470.91
2023-03-01T00:35:14.192Z,95469.94
2023-03-01T00:38:25.809Z,95469.47
2023-03-01T00:41:35.573Z,95466.50
2023-03-01T00:44:45.811Z,95465.25
2023-03-01T00:47:55.280Z,95460.88
2023-03-01T00:51:09.084Z,95462.31
2023-03-01T00:54:19.862Z,95464.22
2023-03-01T00:57:29.532Z,95455.09
2023-03-01T01:00:37.724Z,95452.47
2023-03-01T01:03:48.505Z,95452.38
2023-03-01T01:06:56.842Z,95447.63
2023-03-01T01:10:09.578Z,95436.66
2023-03-01T01:13:17.940Z,95440.47
2023-03-01T01:16:29.731Z,95425.84
2023-03-01T01:19:38.335Z,95421.19
2023-03-01T01:22:46.557Z,95423.91
2023-03-01T01:25:56.123Z,95415.19
2023-03-01T01:29:07.040Z,95418.06
2023-03-01T01:32:15.325Z,95412.44
2023-03-01T01:35:23.622Z,95409.50
2023-03-01T01:38:32.441Z,95408.56
2023-03-01T01:41:44.150Z,95397.50
2023-03-01T01:45:34.072Z,95395.94
2023-03-01T01:48:47.268Z,95391.94
2023-03-01T01:52:07.139Z,95391.69
2023-03-01T01:55:22.559Z,95384.78
2023-03-01T01:58:32.918Z,95377.91
2023-03-01T02:01:41.366Z,95379.81
2023-03-01T02:04:55.196Z,95383.75
2023-03-01T02:08:03.504Z,95385.56
2023-03-01T02:11:15.614Z,95386.63
2023-03-01T02:14:25.221Z,95380.69
2023-03-01T02:17:34.632Z,95372.47
2023-03-01T02:21:03.682Z,95366.75
2023-03-01T02:24:24.978Z,95368.69
2023-03-01T02:27:45.813Z,95362.03
2023-03-01T02:31:13.843Z,95372.38
2023-03-01T02:34:27.071Z,95367.84
2023-03-01T02:37:38.463Z,95361.53
2023-03-01T02:40:47.294Z,95356.56
2023-03-01T02:43:55.553Z,95357.50
2023-03-01T02:47:07.051Z,95357.75
2023-03-01T02:50:41.766Z,95362.03
2023-03-01T02:54:08.900Z,95364.44
2023-03-01T02:57:17.834Z,95360.88
2023-03-01T03:00:34.980Z,95354.81
2023-03-01T03:03:45.730Z,95356.47
2023-03-01T03:06:54.169Z,95360.88
2023-03-01T03:10:02.852Z,95361.13
2023-03-01T03:13:14.607Z,95353.28
2023-03-01T03:16:24.554Z,95345.41
2023-03-01T03:19:34.794Z,95345.94
2023-03-01T03:22:43.101Z,95350.94
2023-03-01T03:25:52.113Z,95350.41
2023-03-01T03:29:00.502Z,95347.34
2023-03-01T03:32:08.724Z,95340.69
2023-03-01T03:35:18.489Z,95347.59
2023-03-01T03:38:27.297Z,95350.72
2023-03-01T03:41:37.263Z,95344.34
2023-03-01T03:44:45.895Z,95336.59
2023-03-01T03:47:54.242Z,95339.78
2023-03-01T03:51:06.309Z,95344.19
2023-03-01T03:54:14.564Z,95342.19
2023-03-01T03:57:22.852Z,95340.56
2023-03-01T04:00:31.520Z,95333.03
2023-03-01T04:03:39.840Z,95328.16
2023-03-01T04:06:49.547Z,95325.75
2023-03-01T04:09:57.779Z,95327.41
2023-03-01T04:13:07.025Z,95323.41
2023-03-01T04:16:15.330Z,95328.69
2023-03-01T04:19:23.522Z,95333.47
2023-03-01T04:22:33.115Z,95326.84
2023-03-01T04:25:43.314Z,95327.00
2023-03-01T04:28:51.628Z,95319.88
2023-03-01T04:32:00.179Z,95323.34
2023-03-01T04:35:09.503Z,95320.78
2023-03-01T04:38:20.227Z,95322.31
2023-03-01T04:41:28.621Z,95317.91
2023-03-01T04:44:36.822Z,95319.69
2023-03-01T04:47:48.065Z,95325.22
2023-03-01T04:50:56.319Z,95327.59
2023-03-01T04:54:09.715Z,95317.47
2023-03-01T04:57:18.381Z,95320.94
2023-03-01T05:00:26.958Z,95318.09
2023-03-01T05:03:35.158Z,95317.38
2023-03-01T05:06:43.507Z,95309.13
2023-03-01T05:09:55.087Z,95312.97
2023-03-01T05:13:05.277Z,95307.88
2023-03-01T05:16:13.568Z,95308.47
2023-03-01T05:19:23.659Z,95311.47
2023-03-01T05:22:32.021Z,95305.81
2023-03-01T05:25:42.293Z,95305.66
2023-03-01T05:28:50.974Z,95298.31
2023-03-01T05:32:01.888Z,95303.66
2023-03-01T05:35:14.131Z,95298.75
2023-03-01T05:38:23.499Z,95295.53
2023-03-01T05:41:32.938Z,95292.56
2023-03-01T05:44:41.417Z,95299.47
2023-03-01T05:47:51.523Z,95289.88
2023-03-01T05:51:02.338Z,95292.47
2023-03-01T05:54:10.504Z,95293.19
2023-03-01T05:57:19.977Z,95298.03
2023-03-01T06:00:28.935Z,95299.44
2023-03-01T06:03:37.011Z,95305.25
2023-03-01T06:06:45.228Z,95303.84
2023-03-01T06:09:53.522Z,95302.41
2023-03-01T06:13:03.154Z,95300.28
2023-03-01T06:16:12.263Z,95297.94
2023-03-01T06:19:20.441Z,95310.03
2023-03-01T06:22:29.713Z,95315.28
2023-03-01T06:25:38.026Z,95304.91
2023-03-01T06:28:47.553Z,95307.91
2023-03-01T06:31:55.960Z,95311.44
2023-03-01T06:35:04.350Z,95312.13
2023-03-01T06:38:12.971Z,95309.75
2023-03-01T06:41:21.264Z,95301.44
2023-03-01T06:44:31.059Z,95312.13
2023-03-01T06:47:39.404Z,95314.03
2023-03-01T06:50:47.643Z,95310.94
2023-03-01T06:53:55.884Z,95309.75
2023-03-01T06:57:04.371Z,95304.59
2023-03-01T07:00:16.166Z,95314.19
2023-03-01T07:03:24.988Z,95306.78
2023-03-01T07:06:33.393Z,95305.84
2023-03-01T07:09:42.054Z,95303.72
2023-03-01T07:12:50.324Z,95311.06
2023-03-01T07:16:00.390Z,95309.91
2023-03-01T07:19:08.749Z,95306.34
2023-03-01T07:22:17.087Z,95303.34
2023-03-01T07:25:25.359Z,95301.56
2023-03-01T07:28:36.909Z,95303.38
2023-03-01T07:31:47.270Z,95302.50
2023-03-01T07:34:56.259Z,95297.88
2023-03-01T07:38:04.776Z,95302.50
2023-03-01T07:41:13.107Z,95297.28
2023-03-01T07:44:21.412Z,95291.94
2023-03-01T07:47:30.984Z,95289.94
2023-03-01T07:50:39.320Z,95295.06
2023-03-01T07:53:49.099Z,95282.81
2023-03-01T07:56:58.814Z,95283.88
2023-03-01T08:00:09.423Z,95290.72
2023-03-01T08:03:21.895Z,95286.84
2023-03-01T08:06:30.388Z,95283.88
2023-03-01T08:09:39.324Z,95288.94
2023-03-01T08:12:49.094Z,95279.34
2023-03-01T08:16:03.246Z,95280.44
2023-03-01T08:19:14.266Z,95282.34
2023-03-01T08:22:22.491Z,95289.28
2023-03-01T08:25:30.722Z,95272.81
2023-03-01T08:28:39.884Z,95264.75
2023-03-01T08:31:48.641Z,95270.72
2023-03-01T08:34:58.512Z,95267.22
2023-03-01T08:38:06.828Z,95256.78
2023-03-01T08:41:15.443Z,95263.41
2023-03-01T08:44:23.664Z,95256.94
2023-03-01T08:47:31.943Z,95264.22
2023-03-01T08:50:42.489Z,95259.34
2023-03-01T08:53:51.155Z,95254.13
2023-03-01T08:57:00.109Z,95258.00
2023-03-01T09:00:10.685Z,95254.13
2023-03-01T09:03:18.872Z,95259.44
2023-03-01T09:06:28.511Z,95262.28
2023-03-01T09:09:37.293Z,95258.41
2023-03-01T09:12:45.631Z,95253.63
2023-03-01T09:15:53.855Z,95247.97
2023-03-01T09:19:02.241Z,95246.16
2023-03-01T09:22:11.842Z,95243.41
2023-03-01T09:25:20.014Z,95234.19
2023-03-01T09:28:30.335Z,95234.81
2023-03-01T09:31:38.618Z,95227.28
2023-03-01T09:35:05.993Z,95230.00
2023-03-01T09:38:15.850Z,95232.50
2023-03-01T09:41:45.548Z,95240.06
2023-03-01T09:45:02.061Z,95237.91
2023-03-01T09:48:20.328Z,95244.66
2023-03-01T09:51:33.291Z,95252.22
2023-03-01T09:54:42.876Z,95238.59
2023-03-01T09:57:57.644Z,95241.88
2023-03-01T10:01:32.658Z,95244.69
2023-03-01T10:04:49.636Z,95242.69
2023-03-01T10:08:26.274Z,95237.44
2023-03-01T10:11:40.766Z,95231.94
2023-03-01T10:15:03.439Z,95228.59
2023-03-01T10:18:19.697Z,95228.28
2023-03-01T10:21:32.705Z,95222.47
2023-03-01T10:24:41.280Z,95224.78
2023-03-01T10:27:56.092Z,95222.56
2023-03-01T10:31:05.060Z,95220.75
2023-03-01T10:34:24.130Z,95226.63
2023-03-01T10:37:32.418Z,95228.38
2023-03-01T10:40:58.039Z,95225.94
2023-03-01T10:44:38.252Z,95223.72
2023-03-01T10:47:46.513Z,95212.28
2023-03-01T10:51:09.567Z,95209.88
2023-03-01T10:54:22.885Z,95198.97
2023-03-01T10:57:42.343Z,95195.97
2023-03-01T11:00:55.392Z,95185.06
2023-03-01T11:04:14.627Z,95183.16
2023-03-01T11:07:24.694Z,95172.84
2023-03-01T11:10:36.612Z,95174.16
2023-03-01T11:13:58.709Z,95163.78
2023-03-01T11:17:24.692Z,95153.41
2023-03-01T11:20:38.249Z,95146.09
2023-03-01T11:23:49.026Z,95150.41
2023-03-01T11:26:58.693Z,95139.88
2023-03-01T11:30:20.187Z,95139.75
2023-03-01T11:33:41.814Z,95132.72
2023-03-01T11:36:56.175Z,95127.03
2023-03-01T11:40:26.237Z,95131.00
2023-03-01T11:43:46.546Z,95132.31
2023-03-01T11:47:21.857Z,95116.88
2023-03-01T11:50:43.147Z,95114.00
2023-03-01T11:54:15.460Z,95118.47
2023-03-01T11:57:52.703Z,95123.78
2023-03-01T12:01:21.907Z,95115.13
2023-03-01T12:05:01.692Z,95105.44
2023-03-01T12:08:22.671Z,95103.75
2023-03-01T12:11:57.517Z,95085.81
2023-03-01T12:15:45.227Z,95090.38
2023-03-01T12:19:17.979Z,95092.38
2023-03-01T12:22:33.734Z,95079.66
2023-03-01T12:25:49.859Z,95076.38
2023-03-01T12:29:21.591Z,95082.78
2023-03-01T12:32:54.087Z,95066.16
2023-03-01T12:36:55.523Z,95069.09
2023-03-01T12:40:35.067Z,95070.28
2023-03-01T12:44:03.344Z,95073.59
2023-03-01T12:47:32.009Z,95077.03
2023-03-01T12:50:47.783Z,95072.00
2023-03-01T12:54:01.391Z,95054.72
2023-03-01T12:57:20.282Z,95061.53
2023-03-01T13:00:41.876Z,95053.50
2023-03-01T13:04:18.029Z,95051.72
2023-03-01T13:07:37.398Z,95059.81
2023-03-01T13:10:52.447Z,95052.63
2023-03-01T13:14:47.110Z,95060.72
2023-03-01T13:17:59.488Z,95046.19
2023-03-01T13:21:08.261Z,95044.38
2023-03-01T13:24:30.639Z,95053.13
2023-03-01T13:27:38.924Z,95036.53
2023-03-01T13:30:47.350Z,95028.44
2023-03-01T13:33:59.177Z,95028.00
2023-03-01T13:37:12.916Z,95036.84
2023-03-01T13:41:01.761Z,95030.63
2023-03-01T13:44:23.714Z,95026.66
2023-03-01T13:47:34.736Z,95019.63
2023-03-01T13:50:53.778Z,95020.94
2023-03-01T13:54:02.215Z,95028.38
2023-03-01T13:57:29.565Z,95021.94
2023-03-01T14:00:41.565Z,95025.25
2023-03-01T14:03:50.517Z,95008.13
2023-03-01T14:07:15.357Z,95026.56
2023-03-01T14:10:25.114Z,95017.00
2023-03-01T14:13:54.076Z,95005.13
2023-03-01T14:17:40.739Z,94995.41
2023-03-01T14:20:53.636Z,94993.25
2023-03-01T14:24:03.445Z,94989.31
2023-03-01T14:27:14.622Z,94985.19
2023-03-01T14:30:27.381Z,94999.53
2023-03-01T14:33:40.502Z,94988.16
2023-03-01T14:36:48.961Z,94993.78
2023-03-01T14:40:00.547Z,94987.38
2023-03-01T14:43:20.321Z,94992.66
2023-03-01T14:46:35.739Z,94984.91
2023-03-01T14:49:45.533Z,94990.66
2023-03-01T14:52:58.130Z,94979.47
2023-03-01T14:56:15.282Z,94974.22
2023-03-01T14:59:25.513Z,94978.00
2023-03-01T15:02:35.235Z,94974.53
2023-03-01T15:05:46.724Z,94977.63
2023-03-01T15:08:58.244Z,94973.19
2023-03-01T15:12:43.551Z,94969.72
2023-03-01T15:15:55.561Z,94969.09
2023-03-01T15:19:07.241Z,94971.56
2023-03-01T15:22:18.874Z,94966.28
2023-03-01T15:25:30.577Z,94969.38
2023-03-01T15:28:52.105Z,94961.13
2023-03-01T15:32:04.892Z,94969.16
2023-03-01T15:35:42.555Z,94965.38
2023-03-01T15:38:57.564Z,94974.53
2023-03-01T15:42:08.883Z,94978.97
2023-03-01T15:45:28.225Z,94966.78
2023-03-01T15:48:36.628Z,94969.38
2023-03-01T15:51:45.050Z,94969.69
2023-03-01T15:54:53.309Z,94964.38
2023-03-01T15:58:05.963Z,94956.09
2023-03-01T16:01:19.026Z,94969.72
2023-03-01T16:04:27.512Z,94959.44
2023-03-01T16:07:40.612Z,94956.56
2023-03-01T16:10:50.882Z,94958.84
2023-03-01T16:13:59.350Z,94958.25
2023-03-01T16:17:11.075Z,94955.94
2023-03-01T16:20:27.892Z,94961.41
2023-03-01T16:23:36.955Z,94960.22
2023-03-01T16:26:45.064Z,94959.75
2023-03-01T16:29:53.303Z,94957.38
2023-03-01T16:33:06.281Z,94961.44
2023-03-01T16:36:21.875Z,94957.66
2023-03-01T16:39:30.170Z,94960.34
2023-03-01T16:42:40.572Z,94963.88
2023-03-01T16:45:49.172Z,94968.03
2023-03-01T16:48:59.109Z,94961.03
2023-03-01T16:52:07.272Z,94962.38
2023-03-01T16:55:15.538Z,94972.00
2023-03-01T16:58:25.589Z,94984.00
2023-03-01T17:01:40.393Z,94977.94
2023-03-01T17:04:55.090Z,94989.72
2023-03-01T17:08:03.429Z,94986.16
2023-03-01T17:11:15.193Z,94982.47
2023-03-01T17:14:23.354Z,94981.38
2023-03-01T17:17:31.688Z,94986.50
2023-03-01T17:20:41.249Z,94986.50
2023-03-01T17:23:50.356Z,94996.03
2023-03-01T17:26:58.523Z,94999.38
2023-03-01T17:30:09.947Z,95003.91
2023-03-01T17:33:19.372Z,95009.19
2023-03-01T17:36:29.129Z,94993.72
2023-03-01T17:39:37.980Z,95001.72
2023-03-01T17:42:46.379Z,95010.97
2023-03-01T17:45:54.700Z,95010.00
2023-03-01T17:49:03.152Z,95008.59
2023-03-01T17:52:16.039Z,95009.16
2023-03-01T17:55:24.488Z,95008.06
2023-03-01T17:58:33.581Z,95012.47
2023-03-01T18:01:43.612Z,95013.16
2023-03-01T18:04:52.059Z,95012.47
2023-03-01T18:08:02.471Z,95003.94
2023-03-01T18:11:10.932Z,95007.09
2023-03-01T18:14:19.050Z,95011.78
2023-03-01T18:17:28.811Z,95011.34
2023-03-01T18:20:37.735Z,95010.09
2023-03-01T18:23:48.188Z,95012.19
2023-03-01T18:26:56.705Z,95010.91
2023-03-01T18:30:09.849Z,95003.28
2023-03-01T18:33:18.385Z,95014.88
2023-03-01T18:36:29.247Z,95002.09
2023-03-01T18:39:39.366Z,94996.25
2023-03-01T18:42:47.787Z,95002.41
2023-03-01T18:45:59.006Z,94996.75
2023-03-01T18:49:08.317Z,95001.44
2023-03-01T18:52:16.733Z,95000.84
2023-03-01T18:55:26.266Z,95005.97
2023-03-01T18:58:35.141Z,95006.78
2023-03-01T19:01:44.735Z,95017.25
2023-03-01T19:04:53.201Z,95009.97
2023-03-01T19:08:01.521Z,95002.25
2023-03-01T19:11:13.278Z,95010.09
2023-03-01T19:14:21.544Z,95003.91
2023-03-01T19:17:31.384Z,95005.09
2023-03-01T19:20:40.504Z,95000.97
2023-03-01T19:23:49.670Z,95000.25
2023-03-01T19:26:59.445Z,95010.56
2023-03-01T19:30:10.083Z,95007.81
2023-03-01T19:33:18.424Z,95000.78
2023-03-01T19:36:33.478Z,95004.50
2023-03-01T19:39:43.438Z,95006.13
2023-03-01T19:42:52.974Z,95007.97
2023-03-01T19:46:01.331Z,95000.88
2023-03-01T19:49:09.811Z,95010.75
2023-03-01T19:52:18.444Z,95008.00
2023-03-01T19:55:26.831Z,95012.41
2023-03-01T19:58:37.104Z,95011.31
2023-03-01T20:01:45.572Z,95009.66
2023-03-01T20:04:53.750Z,94997.25
2023-03-01T20:08:02.304Z,95003.31
2023-03-01T20:11:14.067Z,95010.44
2023-03-01T20:14:24.401Z,94996.41
2023-03-01T20:17:32.838Z,95006.31
2023-03-01T20:20:41.039Z,95000.28
2023-03-01T20:23:49.637Z,94988.16
2023-03-01T20:26:57.805Z,94981.53
2023-03-01T20:30:10.373Z,94984.59
2023-03-01T20:33:18.922Z,94970.94
2023-03-01T20:36:28.815Z,94980.66
2023-03-01T20:39:37.408Z,94977.34
2023-03-01T20:42:45.590Z,94970.47
2023-03-01T20:45:55.452Z,94971.66
2023-03-01T20:49:04.994Z,94972.19
2023-03-01T20:52:13.203Z,94961.19
2023-03-01T20:55:21.978Z,94970.81
2023-03-01T20:58:32.819Z,94977.03
2023-03-01T21:01:42.741Z,94975.56
2023-03-01T21:04:50.970Z,94966.53
2023-03-01T21:08:02.402Z,94972.53
2023-03-01T21:11:11.040Z,94967.09
2023-03-01T21:14:19.498Z,94972.13
2023-03-01T21:17:29.127Z,94973.31
2023-03-01T21:24:10.115Z,94961.50
2023-03-01T21:27:19.766Z,94956.16
2023-03-01T21:30:28.103Z,94953.09
2023-03-01T21:33:38.835Z,94958.88
2023-03-01T21:36:47.249Z,94956.72
2023-03-01T21:39:57.072Z,94961.44
2023-03-01T21:43:05.338Z,94963.53
2023-03-01T21:46:17.249Z,94942.50
2023-03-01T21:49:28.368Z,94942.38
2023-03-01T21:52:36.697Z,94940.66
2023-03-01T21:55:49.144Z,94943.16
2023-03-01T21:58:59.670Z,94944.75
2023-03-01T22:02:09.292Z,94945.47
2023-03-01T22:05:19.317Z,94936.44
2023-03-01T22:08:29.527Z,94931.63
2023-03-01T22:11:41.767Z,94926.53
2023-03-01T22:14:50.999Z,94925.69
2023-03-01T22:18:00.264Z,94927.59
2023-03-01T22:21:11.113Z,94924.03
2023-03-01T22:24:23.081Z,94924.56
2023-03-01T22:27:31.583Z,94928.38
2023-03-01T22:30:39.897Z,94916.81
2023-03-01T22:33:48.514Z,94916.66
2023-03-01T22:37:01.733Z,94920.69
2023-03-01T22:40:11.836Z,94921.63
2023-03-01T22:43:19.952Z,94921.28
2023-03-01T22:46:29.220Z,94905.53
2023-03-01T22:49:38.174Z,94912.72
2023-03-01T22:52:47.741Z,94909.53
2023-03-01T22:55:56.149Z,94912.78
2023-03-01T22:59:09.775Z,94901.84
2023-03-01T23:02:18.370Z,94906.88
2023-03-01T23:05:26.980Z,94905.63
2023-03-01T23:08:37.475Z,94913.47
2023-03-01T23:11:46.132Z,94901.66
2023-03-01T23:14:54.335Z,94909.06
2023-03-01T23:18:02.753Z,94897.63
2023-03-01T23:21:14.077Z,94908.72
2023-03-01T23:24:31.809Z,94901.75
2023-03-01T23:27:40.846Z,94888.78
2023-03-01T23:30:56.431Z,94890.97
2023-03-01T23:34:05.166Z,94885.03
2023-03-01T23:37:13.266Z,94889.16
2023-03-01T23:40:22.856Z,94889.38
2023-03-01T23:43:33.385Z,94889.13
2023-03-01T23:46:43.028Z,94891.16
2023-03-01T23:49:51.753Z,94897.59
2023-03-01T23:53:00.098Z,94890.31
2023-03-01T23:56:14.503Z,94892.75
2023-03-01T23:59:24.826Z,94891.19
